Ronald, WA (98940)

5:41 AM PDT on April 26, 2017 (GMT -0700)
Roslyn Dakota Ave | | Change Station
Active Advisory: Wind Advisory

Elev 2260 ft 47.22 °N, 120.99 °W | Updated 4 seconds ago

Overcast
Overcast
41.2 °F
Feels Like 41 °F
N
0.0
Wind Variable Wind from NE
Gusts 0.0 mph

Today
High -- | Low -- °F
--% Chance of Precip.
Yesterday
High -- | Low -- °F
Precip. -- in
Pressure 29.72 in
Visibility 5.0 miles
Clouds Few 800 ft
Mostly Cloudy 1300 ft
Overcast 1800 ft
Windchill 41 °F
Dew Point 41 °F
Humidity 99%
Rainfall 0.07 in
Snow Depth Not available.
5:55 AM 8:08 PM
New Moon, 0% visible
SPECI KSMP 261218Z AUTO 27009G18KT 210V310 5SM -SN BR FEW008 BKN013 OVC018 02/02 A2972 RMK AO2 SNB14 P0001 T00170017
Pressure 29.72 in
Visibility 5.0 miles
Clouds Few 800 ft
Mostly Cloudy 1300 ft
Overcast 1800 ft
Windchill 41 °F
Dew Point 41 °F
Humidity 99%
Rainfall 0.07 in
Snow Depth Not available.
5:55 AM 8:08 PM
New Moon, 0% visible
SPECI KSMP 261218Z AUTO 27009G18KT 210V310 5SM -SN BR FEW008 BKN013 OVC018 02/02 A2972 RMK AO2 SNB14 P0001 T00170017

Get Your Daily Forecast Email!

Thanks for signing up!

Be on the lookout for a verification email in your inbox.

You'll start receiving severe weather alerts in your inbox..

×

10-Day Weather Forecast

Almanac

Astronomy

Apr. 26, 2017 Rise Set
Actual Time
Civil Twilight
Nautical Twilight
Astronomical Twilight
Moon
Length of Visible Light
Length of Day
Tomorrow will be .
, % of the Moon is Illuminated

Today's Extremes

State Highs State Lows

Community

WunderPhotos

WunderBlog® & News

Nearby

Air Quality

  Air Quality AQ Index Pollutant
Not available.

Snow Depth

Station Depth Elevation

Earthquake Activity

City Distance Mag. Time & Date
Minimum magnitude displayed is 2.5.

Coastal Water Temperatures

Place Temperature

Stations

Nearby Weather Stations

Station Location Temp. Windchill Dew Point Humidity Wind Precip. Elev Updated Type
                   

Watches & Warnings

Wind Advisory
Issued: 10:21 PM PDT Apr. 25, 2017 – National Weather Service

... Wind Advisory remains in effect from 11 am Wednesday to 9 PM
PDT Thursday...

* winds... west 30 to 40 mph with gusts up to 50 mph.

* Timing... winds will increase Wednesday morning and it will
remain very windy through Thursday evening. Winds will be
strongest Wednesday and Thursday afternoon and evening.

* Impacts... strong winds may blow down limbs, trees, and power
lines. Scattered power outages are possible.

Precautionary/preparedness actions...

A Wind Advisory means that winds of 35 mph with higher gusts are
expected. Winds this strong can make driving difficult...
especially for high profile vehicles. Use extra caution.